createdAt,value
2023-02-02T00:00:11.177Z,12.00
2023-02-02T00:02:43.357Z,9.65
2023-02-02T00:05:15.383Z,11.15
2023-02-02T00:07:47.452Z,10.20
2023-02-02T00:10:19.541Z,10.30
2023-02-02T00:12:51.486Z,10.95
2023-02-02T00:15:23.813Z,11.25
2023-02-02T00:17:56.338Z,10.50
2023-02-02T00:20:28.545Z,10.53
2023-02-02T00:23:00.345Z,10.98
2023-02-02T00:25:32.612Z,9.98
2023-02-02T00:28:05.149Z,10.30
2023-02-02T00:30:37.312Z,10.72
2023-02-02T00:33:10.345Z,9.55
2023-02-02T00:35:43.084Z,10.05
2023-02-02T00:38:15.193Z,8.73
2023-02-02T00:40:47.555Z,7.62
2023-02-02T00:43:20.179Z,8.93
2023-02-02T00:45:52.438Z,9.35
2023-02-02T00:48:26.128Z,9.48
2023-02-02T00:50:58.052Z,6.15
2023-02-02T00:53:30.230Z,9.20
2023-02-02T00:56:02.662Z,9.55
2023-02-02T00:58:34.626Z,9.53
2023-02-02T01:01:06.687Z,9.18
2023-02-02T01:03:39.127Z,8.50
2023-02-02T01:06:11.305Z,8.85
2023-02-02T01:08:43.563Z,9.08
2023-02-02T01:11:16.459Z,8.83
2023-02-02T01:13:48.548Z,9.48
2023-02-02T01:16:22.698Z,8.65
2023-02-02T01:18:54.793Z,9.20
2023-02-02T01:21:27.170Z,8.50
2023-02-02T01:23:59.287Z,9.30
2023-02-02T01:26:31.504Z,8.53
2023-02-02T01:29:03.633Z,8.00
2023-02-02T01:31:35.829Z,8.75
2023-02-02T01:34:07.948Z,8.90
2023-02-02T01:36:40.020Z,7.83
2023-02-02T01:39:12.045Z,8.30
2023-02-02T01:41:44.157Z,7.72
2023-02-02T01:44:51.506Z,7.72
2023-02-02T01:47:26.444Z,7.65
2023-02-02T01:49:58.744Z,8.80
2023-02-02T01:52:35.861Z,8.50
2023-02-02T01:55:11.305Z,8.03
2023-02-02T01:58:02.394Z,7.65
2023-02-02T02:00:34.741Z,8.20
2023-02-02T02:03:09.647Z,7.87
2023-02-02T02:05:47.941Z,9.20
2023-02-02T02:08:29.031Z,7.90
2023-02-02T02:11:01.587Z,8.53
2023-02-02T02:13:53.177Z,7.97
2023-02-02T02:16:33.954Z,8.58
2023-02-02T02:19:09.028Z,8.13
2023-02-02T02:22:16.525Z,10.50
2023-02-02T02:25:13.185Z,8.73
2023-02-02T02:27:51.088Z,8.25
2023-02-02T02:30:53.615Z,6.87
2023-02-02T02:33:28.849Z,8.93
2023-02-02T02:36:09.980Z,8.63
2023-02-02T02:38:50.570Z,8.65
2023-02-02T02:41:28.265Z,8.68
2023-02-02T02:44:06.865Z,8.08
2023-02-02T02:46:40.159Z,9.23
2023-02-02T02:49:14.475Z,7.70
2023-02-02T02:51:49.468Z,8.88
2023-02-02T02:54:31.717Z,8.33
2023-02-02T02:57:20.084Z,8.83
2023-02-02T03:00:07.481Z,9.20
2023-02-02T03:02:45.479Z,9.25
2023-02-02T03:05:29.598Z,7.72
2023-02-02T03:08:10.699Z,7.75
2023-02-02T03:10:45.002Z,8.83
2023-02-02T03:13:18.223Z,8.30
2023-02-02T03:15:50.492Z,9.60
2023-02-02T03:18:25.964Z,8.88
2023-02-02T03:20:58.513Z,9.95
2023-02-02T03:23:31.058Z,10.85
2023-02-02T03:26:03.362Z,8.53
2023-02-02T03:28:36.439Z,8.43
2023-02-02T03:31:09.014Z,8.00
2023-02-02T03:33:41.275Z,8.68
2023-02-02T03:36:13.351Z,8.40
2023-02-02T03:38:46.201Z,9.40
2023-02-02T03:41:18.909Z,8.50
2023-02-02T03:43:51.753Z,8.73
2023-02-02T03:46:24.257Z,9.55
2023-02-02T03:48:56.429Z,9.23
2023-02-02T03:51:28.508Z,9.48
2023-02-02T03:54:00.792Z,9.20
2023-02-02T03:56:33.123Z,8.75
2023-02-02T03:59:05.893Z,8.78
2023-02-02T04:01:38.673Z,9.03
2023-02-02T04:04:11.252Z,9.25
2023-02-02T04:06:43.519Z,9.60
2023-02-02T04:09:16.697Z,9.20
2023-02-02T04:11:48.994Z,8.83
2023-02-02T04:14:21.423Z,7.83
2023-02-02T04:16:53.798Z,8.70
2023-02-02T04:19:26.664Z,9.20
2023-02-02T04:21:59.048Z,9.33
2023-02-02T04:24:31.679Z,8.93
2023-02-02T04:27:03.831Z,8.75
2023-02-02T04:29:35.949Z,9.90
2023-02-02T04:32:09.191Z,8.50
2023-02-02T04:34:41.479Z,9.13
2023-02-02T04:37:14.131Z,8.78
2023-02-02T04:39:46.265Z,10.28
2023-02-02T04:42:18.775Z,9.45
2023-02-02T04:44:51.192Z,9.58
2023-02-02T04:47:23.509Z,9.45
2023-02-02T04:49:55.684Z,10.63
2023-02-02T04:52:27.896Z,10.10
2023-02-02T04:55:00.814Z,10.70
2023-02-02T04:57:33.798Z,9.65
2023-02-02T05:00:06.592Z,10.32
2023-02-02T05:02:41.566Z,10.28
2023-02-02T05:05:15.224Z,10.60
2023-02-02T05:07:47.298Z,11.53
2023-02-02T05:10:19.882Z,11.68
2023-02-02T05:12:54.311Z,11.35
2023-02-02T05:15:27.021Z,11.35
2023-02-02T05:17:59.301Z,10.68
2023-02-02T05:20:31.443Z,11.55
2023-02-02T05:23:03.639Z,12.43
2023-02-02T05:25:36.132Z,13.25
2023-02-02T05:28:08.106Z,11.05
2023-02-02T05:30:41.892Z,12.65
2023-02-02T05:33:14.541Z,12.28
2023-02-02T05:35:51.474Z,11.78
2023-02-02T05:38:23.926Z,12.07
2023-02-02T05:40:55.914Z,12.30
2023-02-02T05:43:29.395Z,12.35
2023-02-02T05:46:03.144Z,13.40
2023-02-02T05:48:36.557Z,12.47
2023-02-02T05:51:14.403Z,13.40
2023-02-02T05:53:47.532Z,12.93
2023-02-02T05:56:19.585Z,12.60
2023-02-02T05:58:52.037Z,11.97
2023-02-02T06:01:25.773Z,12.93
2023-02-02T06:03:59.003Z,13.22
2023-02-02T06:06:32.109Z,11.97
2023-02-02T06:09:08.042Z,13.90
2023-02-02T06:11:41.093Z,12.25
2023-02-02T06:14:13.633Z,12.82
2023-02-02T06:16:46.526Z,13.05
2023-02-02T06:19:19.314Z,13.30
2023-02-02T06:21:51.473Z,11.68
2023-02-02T06:24:24.878Z,16.10
2023-02-02T06:26:57.456Z,13.50
2023-02-02T06:29:29.981Z,12.43
2023-02-02T06:32:03.613Z,13.62
2023-02-02T06:34:36.872Z,12.55
2023-02-02T06:37:09.379Z,14.55
2023-02-02T06:39:42.278Z,13.40
2023-02-02T06:42:21.768Z,13.10
2023-02-02T06:44:51.521Z,12.88
2023-02-02T06:47:26.543Z,12.65
2023-02-02T06:49:59.030Z,13.08
2023-02-02T06:52:33.064Z,16.20
2023-02-02T06:55:05.350Z,13.15
2023-02-02T06:57:37.738Z,11.95
2023-02-02T07:00:10.838Z,11.93
2023-02-02T07:02:47.022Z,8.57
2023-02-02T07:05:24.804Z,13.08
2023-02-02T07:07:57.488Z,12.82
2023-02-02T07:11:09.440Z,12.03
2023-02-02T07:13:05.821Z,11.53
2023-02-02T07:15:41.343Z,12.58
2023-02-02T07:18:13.723Z,11.57
2023-02-02T07:20:46.131Z,12.28
2023-02-02T07:23:18.865Z,13.58
2023-02-02T07:25:51.482Z,13.30
2023-02-02T07:28:24.037Z,12.40
2023-02-02T07:30:57.179Z,12.15
2023-02-02T07:33:29.847Z,12.20
2023-02-02T07:36:03.412Z,11.83
2023-02-02T07:38:35.879Z,12.85
2023-02-02T07:41:08.917Z,12.37
2023-02-02T07:43:41.605Z,11.50
2023-02-02T07:46:14.533Z,12.50
2023-02-02T07:48:47.765Z,12.50
2023-02-02T07:51:20.780Z,11.93
2023-02-02T07:53:55.186Z,12.05
2023-02-02T07:56:29.173Z,12.75
2023-02-02T07:59:01.510Z,12.65
2023-02-02T08:01:33.967Z,13.35
2023-02-02T08:04:07.133Z,12.07
2023-02-02T08:06:40.714Z,12.97
2023-02-02T08:09:12.817Z,13.15
2023-02-02T08:11:44.965Z,11.75
2023-02-02T08:14:17.180Z,11.85
2023-02-02T08:16:49.658Z,13.80
2023-02-02T08:19:22.648Z,12.07
2023-02-02T08:21:55.792Z,12.70
2023-02-02T08:24:27.847Z,11.65
2023-02-02T08:27:00.135Z,12.63
2023-02-02T08:29:32.596Z,11.60
2023-02-02T08:32:05.841Z,11.33
2023-02-02T08:34:38.765Z,11.75
2023-02-02T08:37:11.422Z,13.08
2023-02-02T08:39:44.391Z,11.35
2023-02-02T08:42:16.983Z,11.25
2023-02-02T08:46:01.460Z,10.82
2023-02-02T08:47:23.917Z,11.18
2023-02-02T08:49:56.827Z,12.13
2023-02-02T08:52:29.113Z,11.68
2023-02-02T08:55:01.259Z,11.48
2023-02-02T08:57:34.954Z,10.03
2023-02-02T09:00:08.665Z,11.80
2023-02-02T09:02:40.987Z,10.00
2023-02-02T09:05:13.077Z,10.15
2023-02-02T09:07:46.169Z,10.43
2023-02-02T09:10:19.125Z,10.68
2023-02-02T09:12:51.163Z,10.43
2023-02-02T09:15:23.773Z,11.25
2023-02-02T09:17:56.861Z,10.70
2023-02-02T09:20:29.776Z,9.37
2023-02-02T09:23:02.127Z,10.23
2023-02-02T09:25:34.664Z,9.75
2023-02-02T09:28:07.064Z,11.48
2023-02-02T09:30:39.816Z,10.05
2023-02-02T09:33:12.212Z,9.13
2023-02-02T09:35:44.339Z,8.93
2023-02-02T09:38:16.932Z,10.13
2023-02-02T09:40:49.161Z,10.05
2023-02-02T09:43:42.737Z,11.40
2023-02-02T09:46:27.146Z,9.10
2023-02-02T09:49:05.269Z,11.28
2023-02-02T09:51:41.031Z,7.08
2023-02-02T09:54:24.937Z,10.38
2023-02-02T09:57:00.248Z,9.43
2023-02-02T09:59:40.642Z,9.60
2023-02-02T10:02:32.805Z,9.55
2023-02-02T10:05:09.697Z,10.13
2023-02-02T10:07:45.804Z,9.00
2023-02-02T10:10:21.049Z,9.73
2023-02-02T10:12:57.255Z,9.68
2023-02-02T10:15:38.637Z,9.73
2023-02-02T10:18:22.827Z,10.53
2023-02-02T10:21:01.280Z,9.80
2023-02-02T10:23:36.677Z,10.38
2023-02-02T10:26:20.747Z,10.28
2023-02-02T10:29:12.303Z,8.00
2023-02-02T10:31:54.371Z,12.63
2023-02-02T10:34:44.488Z,10.30
2023-02-02T10:37:38.139Z,10.72
2023-02-02T10:40:25.649Z,10.68
2023-02-02T10:43:21.676Z,11.83
2023-02-02T10:45:55.241Z,11.30
2023-02-02T10:48:36.431Z,11.73
2023-02-02T10:51:14.657Z,10.40
2023-02-02T10:53:50.461Z,12.30
2023-02-02T10:56:28.923Z,11.88
2023-02-02T10:59:20.695Z,12.20
2023-02-02T11:01:53.587Z,12.00
2023-02-02T11:04:44.651Z,11.93
2023-02-02T11:07:18.418Z,12.70
2023-02-02T11:09:51.371Z,11.75
2023-02-02T11:12:39.048Z,9.50
2023-02-02T11:15:14.210Z,11.38
2023-02-02T11:17:46.954Z,11.35
2023-02-02T11:20:28.237Z,12.07
2023-02-02T11:23:05.517Z,11.28
2023-02-02T11:25:40.017Z,11.97
2023-02-02T11:28:25.029Z,12.18
2023-02-02T11:30:58.312Z,11.55
2023-02-02T11:33:34.572Z,12.67
2023-02-02T11:36:09.940Z,12.20
2023-02-02T11:38:42.229Z,11.05
2023-02-02T11:41:15.777Z,12.75
2023-02-02T11:43:54.117Z,10.90
2023-02-02T11:46:29.587Z,12.33
2023-02-02T11:49:06.068Z,11.33
2023-02-02T11:51:38.996Z,12.25
2023-02-02T11:54:20.381Z,11.38
2023-02-02T11:56:55.674Z,11.80
2023-02-02T11:59:31.326Z,10.88
2023-02-02T12:02:16.002Z,11.63
2023-02-02T12:07:32.272Z,10.25
2023-02-02T12:10:07.284Z,10.48
2023-02-02T12:12:52.382Z,12.58
2023-02-02T12:15:31.056Z,10.82
2023-02-02T12:18:09.314Z,10.45
2023-02-02T12:20:53.611Z,10.10
2023-02-02T12:23:42.547Z,11.05
2023-02-02T12:26:24.367Z,11.45
2023-02-02T12:29:19.128Z,11.57
2023-02-02T12:34:53.328Z,11.20
2023-02-02T12:37:37.645Z,12.40
2023-02-02T12:40:43.124Z,12.55
2023-02-02T12:43:41.370Z,10.32
2023-02-02T12:46:25.866Z,10.23
2023-02-02T12:49:24.079Z,10.85
2023-02-02T12:52:14.556Z,10.90
2023-02-02T12:55:14.424Z,9.80
2023-02-02T12:57:53.195Z,11.43
2023-02-02T13:00:51.250Z,11.20
2023-02-02T13:03:43.155Z,10.98
2023-02-02T13:06:30.537Z,11.57
2023-02-02T13:09:19.906Z,12.13
2023-02-02T13:12:12.629Z,10.98
2023-02-02T13:14:57.926Z,12.28
2023-02-02T13:17:44.922Z,12.15
2023-02-02T13:20:31.830Z,11.95
2023-02-02T13:23:12.953Z,12.28
2023-02-02T13:25:51.296Z,11.73
2023-02-02T13:28:35.743Z,11.50
2023-02-02T13:31:14.281Z,12.13
2023-02-02T13:33:50.007Z,11.20
2023-02-02T13:36:30.054Z,12.47
2023-02-02T13:39:05.477Z,12.47
2023-02-02T13:41:38.944Z,11.70
2023-02-02T13:44:19.832Z,12.95
2023-02-02T13:46:57.647Z,12.13
2023-02-02T13:49:33.957Z,13.25
2023-02-02T13:52:26.210Z,13.13
2023-02-02T13:55:27.244Z,12.58
2023-02-02T13:58:14.442Z,13.32
2023-02-02T14:00:50.416Z,13.13
2023-02-02T14:03:36.800Z,13.65
2023-02-02T14:06:17.426Z,13.50
2023-02-02T14:08:52.731Z,13.40
2023-02-02T14:11:33.982Z,14.20
2023-02-02T14:14:33.725Z,14.85
2023-02-02T14:17:12.012Z,13.95
2023-02-02T14:19:56.584Z,13.78
2023-02-02T14:22:48.276Z,16.10
2023-02-02T14:25:37.213Z,13.32
2023-02-02T14:28:14.956Z,11.95
2023-02-02T14:30:51.231Z,14.60
2023-02-02T14:33:29.160Z,14.23
2023-02-02T14:36:03.786Z,15.48
2023-02-02T14:38:48.016Z,14.30
2023-02-02T14:41:49.665Z,15.05
2023-02-02T14:44:22.681Z,14.90
2023-02-02T14:46:54.880Z,14.43
2023-02-02T14:49:29.825Z,15.28
2023-02-02T14:52:05.603Z,14.93
2023-02-02T14:54:41.205Z,16.45
2023-02-02T14:57:28.606Z,15.18
2023-02-02T15:00:01.992Z,16.12
2023-02-02T15:02:37.769Z,15.58
2023-02-02T15:05:35.444Z,16.85
2023-02-02T15:08:13.669Z,15.28
2023-02-02T15:10:57.511Z,15.63
2023-02-02T15:13:37.004Z,15.72
2023-02-02T15:16:15.101Z,15.32
2023-02-02T15:18:50.204Z,14.23
2023-02-02T15:21:24.654Z,15.63
2023-02-02T15:23:58.372Z,15.20
2023-02-02T15:26:36.514Z,15.40
2023-02-02T15:29:17.652Z,13.83
2023-02-02T15:31:54.556Z,14.03
2023-02-02T15:34:56.784Z,14.58
2023-02-02T15:37:35.649Z,14.45
2023-02-02T15:40:10.839Z,14.07
2023-02-02T15:42:54.823Z,14.13
2023-02-02T15:45:37.590Z,14.25
2023-02-02T15:48:12.709Z,14.85
2023-02-02T15:50:51.382Z,13.28
2023-02-02T15:53:26.399Z,15.85
2023-02-02T15:55:59.361Z,14.85
2023-02-02T15:58:34.337Z,14.63
2023-02-02T16:01:09.774Z,14.38
2023-02-02T16:03:53.656Z,15.72
2023-02-02T16:06:26.438Z,14.10
2023-02-02T16:08:59.096Z,16.30
2023-02-02T16:11:31.775Z,15.25
2023-02-02T16:14:07.242Z,17.00
2023-02-02T16:16:41.344Z,14.75
2023-02-02T16:22:07.510Z,11.28
2023-02-02T16:24:42.839Z,15.43
2023-02-02T16:27:17.803Z,14.47
2023-02-02T16:29:50.966Z,14.55
2023-02-02T16:32:35.919Z,14.40
2023-02-02T16:35:27.515Z,14.87
2023-02-02T16:38:28.116Z,15.28
2023-02-02T16:41:11.507Z,13.93
2023-02-02T16:43:44.736Z,14.47
2023-02-02T16:46:19.014Z,15.32
2023-02-02T16:49:02.257Z,15.80
2023-02-02T16:51:37.299Z,15.20
2023-02-02T16:54:12.564Z,15.75
2023-02-02T16:56:47.467Z,16.37
2023-02-02T16:59:28.578Z,14.45
2023-02-02T17:02:03.893Z,15.48
2023-02-02T17:04:36.474Z,14.35
2023-02-02T17:07:16.166Z,15.30
2023-02-02T17:09:49.642Z,16.42
2023-02-02T17:12:34.527Z,15.63
2023-02-02T17:15:03.637Z,14.25
2023-02-02T17:17:36.094Z,15.60
2023-02-02T17:20:08.697Z,15.03
2023-02-02T17:22:44.514Z,14.18
2023-02-02T17:25:19.857Z,14.87
2023-02-02T17:27:52.801Z,15.23
2023-02-02T17:30:25.241Z,15.68
2023-02-02T17:32:57.240Z,15.45
2023-02-02T17:35:39.935Z,13.65
2023-02-02T17:38:03.497Z,14.07
2023-02-02T17:40:35.777Z,14.20
2023-02-02T17:43:10.665Z,14.00
2023-02-02T17:45:43.017Z,15.80
2023-02-02T17:48:16.526Z,14.78
2023-02-02T17:50:49.522Z,14.68
2023-02-02T17:53:23.533Z,14.83
2023-02-02T17:55:55.844Z,15.23
2023-02-02T17:58:28.144Z,15.13
2023-02-02T18:01:01.307Z,15.03
2023-02-02T18:03:36.278Z,14.20
2023-02-02T18:06:10.787Z,14.40
2023-02-02T18:11:18.801Z,14.50
2023-02-02T18:13:50.852Z,13.48
2023-02-02T18:16:22.906Z,15.95
2023-02-02T18:18:55.451Z,15.45
2023-02-02T18:21:27.681Z,13.55
2023-02-02T18:24:00.107Z,14.98
2023-02-02T18:26:34.250Z,15.70
2023-02-02T18:31:37.708Z,14.28
2023-02-02T18:34:09.861Z,15.25
2023-02-02T18:36:42.070Z,15.23
2023-02-02T18:39:14.107Z,15.60
2023-02-02T18:41:47.559Z,15.63
2023-02-02T18:44:19.746Z,13.60
2023-02-02T18:46:54.478Z,14.80
2023-02-02T18:49:26.577Z,15.45
2023-02-02T18:52:00.148Z,13.98
2023-02-02T18:54:35.867Z,14.85
2023-02-02T18:57:08.898Z,16.27
2023-02-02T18:59:42.993Z,15.47
2023-02-02T19:02:17.727Z,16.42
2023-02-02T19:05:00.738Z,15.93
2023-02-02T19:07:52.677Z,16.32
2023-02-02T19:10:27.609Z,15.58
2023-02-02T19:13:22.182Z,17.60
2023-02-02T19:15:56.099Z,16.27
2023-02-02T19:18:28.702Z,15.13
2023-02-02T19:21:01.053Z,16.93
2023-02-02T19:23:33.425Z,17.23
2023-02-02T19:26:08.741Z,16.35
2023-02-02T19:28:41.366Z,16.62
2023-02-02T19:31:16.324Z,17.48
2023-02-02T19:33:51.060Z,16.02
2023-02-02T19:36:25.069Z,16.02
2023-02-02T19:39:18.133Z,16.02
2023-02-02T19:41:51.531Z,17.23
2023-02-02T19:44:26.582Z,16.53
2023-02-02T19:47:00.313Z,14.50
2023-02-02T19:49:35.578Z,15.88
2023-02-02T19:52:11.589Z,16.62
2023-02-02T19:54:46.450Z,17.82
2023-02-02T19:57:41.144Z,14.03
2023-02-02T20:00:28.993Z,15.75
2023-02-02T20:03:07.777Z,15.25
2023-02-02T20:05:42.475Z,16.27
2023-02-02T20:08:26.573Z,16.42
2023-02-02T20:11:01.435Z,16.67
2023-02-02T20:13:42.691Z,17.10
2023-02-02T20:16:23.864Z,17.17
2023-02-02T20:18:58.824Z,16.95
2023-02-02T20:21:45.176Z,17.20
2023-02-02T20:24:29.142Z,16.65
2023-02-02T20:27:04.300Z,16.90
2023-02-02T20:29:44.217Z,17.42
2023-02-02T20:32:29.086Z,17.27
2023-02-02T20:35:02.640Z,17.52
2023-02-02T20:37:37.040Z,13.98
2023-02-02T20:40:14.704Z,17.52
2023-02-02T20:42:48.174Z,18.35
2023-02-02T20:45:21.962Z,18.80
2023-02-02T20:47:54.146Z,19.62
2023-02-02T20:50:26.624Z,19.23
2023-02-02T20:53:00.097Z,18.07
2023-02-02T20:55:33.824Z,19.10
2023-02-02T20:58:06.809Z,17.92
2023-02-02T21:00:39.758Z,17.37
2023-02-02T21:03:13.350Z,18.67
2023-02-02T21:05:45.689Z,17.67
2023-02-02T21:08:18.071Z,18.40
2023-02-02T21:10:50.043Z,17.00
2023-02-02T21:13:22.106Z,17.23
2023-02-02T21:15:54.461Z,17.10
2023-02-02T21:18:27.133Z,15.85
2023-02-02T21:20:59.496Z,17.45
2023-02-02T21:23:31.794Z,15.78
2023-02-02T21:26:03.690Z,17.12
2023-02-02T21:28:35.748Z,16.02
2023-02-02T21:31:12.181Z,15.50
2023-02-02T21:33:45.819Z,17.62
2023-02-02T21:36:48.728Z,17.23
2023-02-02T21:39:28.920Z,16.73
2023-02-02T21:42:15.677Z,16.00
2023-02-02T21:44:59.182Z,16.40
2023-02-02T21:47:37.121Z,16.35
2023-02-02T21:50:20.697Z,17.27
2023-02-02T21:52:52.749Z,17.40
2023-02-02T21:55:39.578Z,17.07
2023-02-02T21:58:26.256Z,16.05
2023-02-02T22:01:16.447Z,16.12
2023-02-02T22:03:50.109Z,16.17
2023-02-02T22:06:31.116Z,16.65
2023-02-02T22:09:18.158Z,16.67
2023-02-02T22:12:04.564Z,16.97
2023-02-02T22:14:42.347Z,16.45
2023-02-02T22:17:25.563Z,16.30
2023-02-02T22:20:03.016Z,17.62
2023-02-02T22:22:37.381Z,16.67
2023-02-02T22:25:22.906Z,15.43
2023-02-02T22:28:01.240Z,15.53
2023-02-02T22:33:13.720Z,16.00
2023-02-02T22:35:46.683Z,17.40
2023-02-02T22:38:21.861Z,16.85
2023-02-02T22:40:54.501Z,16.57
2023-02-02T22:43:26.823Z,16.23
2023-02-02T22:45:59.089Z,16.37
2023-02-02T22:48:31.716Z,17.00
2023-02-02T22:51:03.690Z,16.12
2023-02-02T22:53:36.087Z,16.07
2023-02-02T22:56:08.562Z,16.70
2023-02-02T22:58:40.982Z,16.07
2023-02-02T23:01:13.984Z,15.90
2023-02-02T23:03:47.670Z,16.27
2023-02-02T23:06:19.759Z,16.32
2023-02-02T23:08:52.324Z,15.55
2023-02-02T23:11:24.337Z,15.58
2023-02-02T23:13:56.472Z,16.50
2023-02-02T23:16:28.628Z,15.28
2023-02-02T23:19:00.612Z,14.90
2023-02-02T23:21:33.113Z,15.08
2023-02-02T23:24:05.220Z,15.35
2023-02-02T23:26:37.160Z,15.23
2023-02-02T23:29:09.874Z,16.05
2023-02-02T23:31:42.963Z,16.15
2023-02-02T23:34:15.059Z,15.13
2023-02-02T23:36:47.112Z,15.20
2023-02-02T23:39:19.204Z,16.07
2023-02-02T23:41:51.209Z,15.23
2023-02-02T23:44:23.207Z,15.55
2023-02-02T23:46:55.566Z,15.85
2023-02-02T23:49:29.141Z,12.10
2023-02-02T23:52:01.774Z,15.35
2023-02-02T23:54:34.672Z,15.38
2023-02-02T23:57:06.799Z,16.10
2023-02-02T23:59:38.910Z,16.27
